createdAt,value
2019-05-17T00:01:39.422Z,70.55
2019-05-17T00:10:00.922Z,71.35
2019-05-17T00:18:22.588Z,72.40
2019-05-17T00:26:43.935Z,70.08
2019-05-17T00:35:07.728Z,69.12
2019-05-17T00:43:26.893Z,71.05
2019-05-17T00:51:48.483Z,69.92
2019-05-17T01:00:09.768Z,69.65
2019-05-17T01:08:31.613Z,68.40
2019-05-17T01:16:53.128Z,68.75
2019-05-17T01:25:16.887Z,67.80
2019-05-17T01:33:37.134Z,68.42
2019-05-17T01:41:57.709Z,66.57
2019-05-17T01:50:19.095Z,67.22
2019-05-17T01:58:42.477Z,67.17
2019-05-17T02:07:06.700Z,67.75
2019-05-17T02:15:27.160Z,71.57
2019-05-17T02:23:47.346Z,66.90
2019-05-17T02:32:08.665Z,67.85
2019-05-17T02:40:34.421Z,67.72
2019-05-17T02:48:54.273Z,69.67
2019-05-17T02:57:14.666Z,68.33
2019-05-17T03:05:34.512Z,68.47
2019-05-17T03:13:55.874Z,69.50
2019-05-17T03:22:17.533Z,69.22
2019-05-17T03:30:39.089Z,68.40
2019-05-17T03:39:03.501Z,68.42
2019-05-17T03:47:23.049Z,70.75
2019-05-17T03:55:43.678Z,67.55
2019-05-17T04:04:05.348Z,68.50
2019-05-17T04:12:26.505Z,70.57
2019-05-17T04:20:47.646Z,69.12
2019-05-17T04:29:08.898Z,70.17
2019-05-17T04:37:36.118Z,69.75
2019-05-17T04:45:54.091Z,70.90
2019-05-17T04:54:15.450Z,70.95
2019-05-17T05:02:36.994Z,70.95
2019-05-17T05:10:58.401Z,71.42
2019-05-17T05:19:22.609Z,68.12
2019-05-17T05:27:43.446Z,72.30
2019-05-17T05:36:05.039Z,71.47
2019-05-17T05:44:26.566Z,68.00
2019-05-17T05:52:48.041Z,69.92
2019-05-17T06:01:09.741Z,68.50
2019-05-17T06:09:32.173Z,68.15
2019-05-17T06:17:53.823Z,66.87
2019-05-17T06:26:13.972Z,68.47
2019-05-17T06:34:35.449Z,69.35
2019-05-17T06:42:56.918Z,70.97
2019-05-17T06:51:18.261Z,65.95
2019-05-17T06:59:39.877Z,66.55
2019-05-17T07:08:01.300Z,65.40
2019-05-17T07:16:22.805Z,67.47
2019-05-17T07:24:44.614Z,67.03
2019-05-17T07:33:06.140Z,70.57
2019-05-17T07:41:30.065Z,68.12
2019-05-17T07:49:49.799Z,67.67
2019-05-17T07:58:10.638Z,68.07
2019-05-17T08:06:31.928Z,66.57
2019-05-17T08:14:53.395Z,67.82
2019-05-17T08:23:15.383Z,66.92
2019-05-17T08:31:36.324Z,66.57
2019-05-17T08:40:00.363Z,67.85
2019-05-17T08:48:20.971Z,66.30
2019-05-17T08:56:40.980Z,67.45
2019-05-17T09:05:03.308Z,63.83
2019-05-17T09:13:24.489Z,70.83
2019-05-17T09:21:45.908Z,69.45
2019-05-17T09:30:09.769Z,71.02
2019-05-17T09:38:29.874Z,70.30
2019-05-17T09:46:50.741Z,69.12
2019-05-17T09:55:11.579Z,70.10
2019-05-17T10:03:32.958Z,71.28
2019-05-17T10:11:54.287Z,70.95
2019-05-17T10:20:15.744Z,72.45
2019-05-17T10:28:37.120Z,71.50
2019-05-17T10:36:58.588Z,71.82
2019-05-17T10:45:20.207Z,71.07
2019-05-17T10:53:44.098Z,72.03
2019-05-17T11:02:05.403Z,71.90
2019-05-17T11:10:26.929Z,71.35
2019-05-17T11:18:48.611Z,73.45
2019-05-17T11:27:10.097Z,76.30
2019-05-17T11:35:31.841Z,73.25
2019-05-17T11:43:53.075Z,73.78
2019-05-17T11:52:16.530Z,71.25
2019-05-17T12:00:37.954Z,71.33
2019-05-17T12:08:59.377Z,71.57
2019-05-17T12:17:21.179Z,70.50
2019-05-17T12:25:42.642Z,73.00
2019-05-17T12:34:04.340Z,73.55
2019-05-17T12:42:25.571Z,74.42
2019-05-17T12:50:47.669Z,72.10
2019-05-17T12:59:09.697Z,72.15
2019-05-17T13:07:31.169Z,72.03
2019-05-17T13:15:54.689Z,71.33
2019-05-17T13:24:16.591Z,72.50
2019-05-17T13:32:38.944Z,72.40
2019-05-17T13:41:02.813Z,70.37
2019-05-17T13:49:24.297Z,69.27
2019-05-17T13:57:46.080Z,71.20
2019-05-17T14:06:09.833Z,78.15
2019-05-17T14:14:31.264Z,72.08
2019-05-17T14:22:53.197Z,74.80
2019-05-17T14:31:14.710Z,73.30
2019-05-17T14:39:38.002Z,76.30
2019-05-17T14:47:59.608Z,89.92
2019-05-17T14:56:21.030Z,76.97
2019-05-17T15:04:42.673Z,77.50
2019-05-17T15:13:04.180Z,76.82
2019-05-17T15:21:25.711Z,78.67
2019-05-17T15:29:47.049Z,92.33
2019-05-17T15:38:11.527Z,85.15
2019-05-17T15:46:32.722Z,87.12
2019-05-17T15:54:53.932Z,88.00
2019-05-17T16:03:15.576Z,90.55
2019-05-17T16:11:37.242Z,98.60
2019-05-17T16:19:58.963Z,86.63
2019-05-17T16:28:20.392Z,84.58
2019-05-17T16:36:41.809Z,87.02
2019-05-17T16:45:05.430Z,88.90
2019-05-17T16:53:26.894Z,101.87
2019-05-17T17:01:48.340Z,89.28
2019-05-17T17:10:09.886Z,99.42
2019-05-17T17:18:31.656Z,85.47
2019-05-17T17:26:53.086Z,87.45
2019-05-17T17:35:14.562Z,95.42
2019-05-17T17:43:35.925Z,83.80
2019-05-17T17:51:57.410Z,81.42
2019-05-17T18:00:18.694Z,83.40
2019-05-17T18:08:40.391Z,81.90
2019-05-17T18:17:02.035Z,91.90
2019-05-17T18:25:25.683Z,79.42
2019-05-17T18:33:47.181Z,79.97
2019-05-17T18:42:08.657Z,78.00
2019-05-17T18:50:29.957Z,77.82
2019-05-17T18:58:51.885Z,85.38
2019-05-17T19:07:13.541Z,75.32
2019-05-17T19:15:34.812Z,73.60
2019-05-17T19:23:56.595Z,75.00
2019-05-17T19:32:17.814Z,73.28
2019-05-17T19:40:40.156Z,82.53
2019-05-17T19:49:01.549Z,72.62
2019-05-17T19:57:23.046Z,74.45
2019-05-17T20:05:44.613Z,74.30
2019-05-17T20:14:05.977Z,73.75
2019-05-17T20:22:27.351Z,78.97
2019-05-17T20:30:49.026Z,73.85
2019-05-17T20:39:10.642Z,73.97
2019-05-17T20:47:32.156Z,73.52
2019-05-17T20:55:55.596Z,73.92
2019-05-17T21:04:17.052Z,74.15
2019-05-17T21:12:38.720Z,74.90
2019-05-17T21:21:00.184Z,77.58
2019-05-17T21:29:21.703Z,76.20
2019-05-17T21:37:43.249Z,73.70
2019-05-17T21:46:05.151Z,74.22
2019-05-17T21:54:26.668Z,76.57
2019-05-17T22:02:48.252Z,74.62
2019-05-17T22:11:09.778Z,76.33
2019-05-17T22:19:31.290Z,75.22
2019-05-17T22:27:53.199Z,75.40
2019-05-17T22:36:14.886Z,73.83
2019-05-17T22:44:36.394Z,73.30
2019-05-17T22:52:57.769Z,75.08
2019-05-17T23:01:19.071Z,73.52
2019-05-17T23:09:40.754Z,74.85
2019-05-17T23:18:02.412Z,73.62
2019-05-17T23:26:23.650Z,73.10
2019-05-17T23:34:45.159Z,73.78
2019-05-17T23:43:06.568Z,73.22
2019-05-17T23:51:27.955Z,74.03
2019-05-17T23:59:49.454Z,71.15
